Data for 06/15/2010

Time Sea-Level Adjusted Pressure Absolute Pressure Temperature Relative Humidity Dew Point   
(mb) (inHg) (mb) (inHg) (C) (F) (%) (C) (F)
00:05 1015 29.97 845 24.95 15.8 60.5 54 6.6 43.9
00:10 1015 29.97 845 24.95 15.8 60.4 55 6.8 44.2
00:15 1015 29.97 845 24.95 15.6 60.2 56 7.1 44.8
00:20 1015 29.97 845 24.95 15.3 59.6 62 8.1 46.5
00:25 1016 30 845 24.95 14.9 58.8 61 7.4 45.4
00:30 1016 30 845 24.95 14.5 58.2 62 7.5 45.5
00:35 1016 30 845 24.95 14.5 58.1 61 7.2 44.9
00:40 1016 30 845 24.95 14.5 58 58 6.5 43.7
00:45 1016 30 845 24.95 14.6 58.3 56 5.9 42.6
00:50 1016 30 845 24.95 14.7 58.5 55 5.7 42.3
00:55 1016 30 845 24.95 14.7 58.4 56 6.2 43.1
01:00 1016 30 845 24.95 14.2 57.5 59 6.3 43.4
01:05 1016 30 845 24.95 13.8 56.9 59 6.1 43
01:10 1015 29.97 845 24.95 13.8 56.8 57 5.5 42
01:15 1015 29.97 845 24.95 13.9 57 58 6 42.7
01:20 1015 29.97 845 24.95 14.1 57.4 56 5.6 42.1
01:25 1016 30 845 24.95 14.4 58 61 7.1 44.7
01:30 1015 29.97 845 24.95 14.1 57.4 66 7.8 46.1
01:35 1015 29.97 845 24.95 13.7 56.7 67 7.7 45.9
01:40 1015 29.97 844 24.92 13.7 56.6 67 7.6 45.7
01:45 1015 29.97 845 24.95 13.7 56.7 67 7.8 46
01:50 1015 29.97 845 24.95 13.6 56.6 67 7.6 45.7
01:55 1015 29.97 844 24.92 13.7 56.6 66 7.4 45.3
02:00 1015 29.97 844 24.92 13.8 56.8 65 7.5 45.4
02:05 1015 29.97 844 24.92 13.8 56.8 65 7.4 45.4
02:10 1015 29.97 844 24.92 13.9 57 64 7.2 45
02:15 1015 29.97 844 24.92 14.1 57.3 63 7.2 45
02:20 1015 29.97 844 24.92 14 57.3 64 7.5 45.5
02:25 1015 29.97 844 24.92 13.8 56.8 66 7.6 45.7
02:30 1015 29.97 844 24.92 13.5 56.2 67 7.5 45.4
02:35 1015 29.97 844 24.92 13.5 56.3 66 7.4 45.2
02:40 1015 29.97 844 24.92 13.5 56.2 66 7.4 45.3
02:45 1015 29.97 844 24.92 13.4 56.1 66 7.3 45.1
02:50 1015 29.97 844 24.92 13.4 56.2 66 7.2 44.9
02:55 1015 29.97 844 24.92 13.3 55.9 68 7.5 45.5
03:00 1015 29.97 844 24.92 13.2 55.7 66 7 44.5
03:05 1015 29.97 844 24.92 13.6 56.4 64 7 44.5
03:10 1015 29.97 844 24.92 13.5 56.2 65 7.1 44.8
03:15 1015 29.97 844 24.92 13.3 56 65 7 44.6
03:20 1015 29.97 844 24.92 13.4 56 65 7 44.6
03:25 1015 29.97 844 24.92 13.3 55.9 66 7.1 44.7
03:30 1015 29.97 844 24.92 13.2 55.7 65 6.7 44.1
03:35 1015 29.97 844 24.92 13.3 56 65 7 44.6
03:40 1015 29.97 844 24.92 13 55.5 67 7 44.7
03:45 1015 29.97 844 24.92 12.8 55 67 6.8 44.3
03:50 1015 29.97 844 24.92 12.7 54.9 67 6.8 44.2
03:55 1015 29.97 844 24.92 12.6 54.8 67 6.7 44.1
04:00 1015 29.97 844 24.92 12.5 54.4 67 6.5 43.6
04:05 1015 29.97 844 24.92 12.6 54.6 63 5.7 42.2
04:10 1015 29.97 844 24.92 12.8 55 64 6.2 43.1
04:15 1015 29.97 844 24.92 12.7 54.9 65 6.3 43.4
04:20 1015 29.97 844 24.92 12.6 54.7 65 6.2 43.1
04:25 1015 29.97 844 24.92 12.1 53.8 67 6.2 43.2
04:30 1015 29.97 844 24.92 12.1 53.8 66 6 42.8
04:35 1015 29.97 844 24.92 12.2 54 66 6.2 43.1
04:40 1015 29.97 844 24.92 12.1 53.7 67 6.1 42.9
04:45 1015 29.97 844 24.92 11.8 53.3 69 6.4 43.6
04:50 1015 29.97 844 24.92 12.1 53.8 65 5.9 42.6
04:55 1015 29.97 844 24.92 11.6 52.9 68 6 42.8
05:00 1015 29.97 844 24.92 11.6 52.9 68 6 42.8
05:05 1015 29.97 845 24.95 11.3 52.4 67 5.5 42
05:10 1015 29.97 845 24.95 11.1 52 66 5.2 41.3
05:15 1016 30 845 24.95 11.1 52 68 5.4 41.7
05:20 1016 30 845 24.95 10.9 51.5 68 5.3 41.5
05:25 1016 30 845 24.95 11 51.7 68 5.4 41.8
05:30 1016 30 845 24.95 11 51.8 67 5.2 41.3
05:35 1016 30 845 24.95 11 51.8 69 5.7 42.2
05:40 1016 30 845 24.95 10.6 51.2 71 5.7 42.3
05:45 1016 30 845 24.95 10.3 50.6 72 5.5 41.9
05:50 1016 30 845 24.95 10.3 50.5 73 5.6 42.1
05:55 1016 30 845 24.95 10.2 50.4 73 5.6 42.1
06:00 1016 30 845 24.95 10.5 50.9 71 5.5 41.9
06:05 1016 30 845 24.95 10.7 51.2 73 6 42.7
06:10 1016 30 845 24.95 9.9 49.8 73 5.4 41.6
06:15 1015 29.97 845 24.95 10.1 50.1 72 5.3 41.5
06:20 1015 29.97 845 24.95 10.4 50.7 71 5.5 41.8
06:25 1015 29.97 845 24.95 10.5 51 71 5.5 41.9
06:30 1015 29.97 845 24.95 10.8 51.4 69 5.3 41.6
06:35 1015 29.97 845 24.95 11.1 51.9 68 5.5 41.9
06:40 1016 30 845 24.95 11.3 52.3 68 5.6 42.1
06:45 1016 30 845 24.95 11.5 52.7 69 6 42.8
06:50 1016 30 845 24.95 11.3 52.4 71 6.3 43.3
06:55 1016 30 845 24.95 11.5 52.7 69 6.1 43.1
07:00 1016 30 845 24.95 11.7 53 70 6.5 43.6
07:05 1016 30 845 24.95 11.7 53.1 69 6.3 43.3
07:10 1016 30 845 24.95 12 53.5 68 6.3 43.4
07:15 1016 30 845 24.95 12.1 53.8 69 6.6 43.9
07:20 1016 30 846 24.98 12.1 53.9 70 6.8 44.3
07:25 1016 30 846 24.98 12 53.7 72 7.1 44.9
07:30 1016 30 846 24.98 11.8 53.3 72 6.9 44.5
07:35 1017 30.03 846 24.98 11.8 53.3 72 7 44.7
07:40 1017 30.03 846 24.98 12 53.5 71 7 44.6
07:45 1017 30.03 846 24.98 12.1 53.7 73 7.3 45.1
07:50 1017 30.03 846 24.98 12.1 53.7 71 7.1 44.7
07:55 1017 30.03 846 24.98 12.6 54.8 70 7.3 45.2
08:00 1017 30.03 846 24.98 12.3 54.2 71 7.3 45.2
08:05 1017 30.03 846 24.98 12.5 54.5 69 7 44.6
08:10 1017 30.03 846 24.98 13.1 55.6 68 7.4 45.3
08:15 1017 30.03 846 24.98 12.9 55.1 69 7.3 45.1
08:20 1017 30.03 846 24.98 12.7 54.8 71 7.5 45.6
08:25 1017 30.03 846 24.98 12.6 54.6 72 7.6 45.7
08:30 1017 30.03 846 24.98 13.2 55.8 69 7.7 45.9
08:35 1017 30.03 846 24.98 14.3 57.8 64 7.6 45.6
08:40 1017 30.03 846 24.98 14.8 58.6 61 7.5 45.4
08:45 1017 30.03 846 24.98 15.2 59.3 62 7.9 46.2
08:50 1017 30.03 846 24.98 15.2 59.4 59 7.4 45.3
08:55 1017 30.03 846 24.98 14.7 58.5 63 7.8 46
09:00 1017 30.03 846 24.98 14 57.1 64 7.3 45.1
09:05 1017 30.03 846 24.98 13.7 56.6 66 7.5 45.6
09:10 1017 30.03 846 24.98 13.2 55.7 69 7.6 45.7
09:15 1017 30.03 846 24.98 13.2 55.7 67 7.2 45
09:20 1017 30.03 846 24.98 12.9 55.2 69 7.5 45.5
09:25 1017 30.03 846 24.98 12.8 55.1 66 6.8 44.2
09:30 1017 30.03 846 24.98 13.9 57 63 7.1 44.8
09:35 1017 30.03 846 24.98 13.9 56.9 64 7.2 45
09:40 1016 30 846 24.98 14 57.1 65 7.6 45.7
09:45 1016 30 846 24.98 13.5 56.3 64 7 44.6
09:50 1016 30 846 24.98 13.9 57.1 63 7 44.6
09:55 1017 30.03 846 24.98 14 57.1 62 6.8 44.3
10:00 1017 30.03 846 24.98 13.9 56.9 62 6.9 44.4
10:05 1016 30 846 24.98 14.2 57.5 62 7 44.6
10:10 1016 30 845 24.95 14.4 57.9 61 7 44.5
10:15 1016 30 845 24.95 14.1 57.3 62 7 44.7
10:20 1015 29.97 844 24.92 14.4 57.8 59 6.6 44
10:25 1015 29.97 844 24.92 15 59 59 7.1 44.7
10:30 1015 29.97 844 24.92 14.7 58.4 58 6.5 43.7
10:35 1015 29.97 844 24.92 15.4 59.7 56 6.9 44.4
10:40 1015 29.97 844 24.92 15.7 60.3 58 7.6 45.7
10:45 1015 29.97 844 24.92 15.3 59.5 58 7.2 44.9
10:50 1015 29.97 844 24.92 15.6 60 58 7.5 45.6
10:55 1015 29.97 844 24.92 15.3 59.6 60 7.7 45.9
11:00 1015 29.97 844 24.92 16.1 61 54 6.9 44.4
11:05 1015 29.97 844 24.92 17.6 63.7 51 7.5 45.4
11:10 1015 29.97 844 24.92 17.5 63.4 51 7.4 45.3
11:15 1015 29.97 844 24.92 18 64.4 49 7.2 44.9
11:20 1015 29.97 844 24.92 18.1 64.7 51 8.1 46.6
11:25 1015 29.97 844 24.92 17.6 63.7 53 8 46.3
11:30 1015 29.97 844 24.92 17.1 62.8 56 8.2 46.8
11:35 1015 29.97 844 24.92 17.5 63.5 56 8.6 47.5
11:40 1015 29.97 844 24.92 17 62.7 56 8.3 46.9
11:45 1014 29.94 844 24.92 17.4 63.2 54 8.1 46.6
11:50 1014 29.94 844 24.92 18.2 64.8 50 7.6 45.7
11:55 1014 29.94 844 24.92 18.2 64.8 51 8.2 46.7
12:00 1014 29.94 844 24.92 18.3 64.9 52 8.3 47
12:05 1014 29.94 844 24.92 17.7 63.8 49 6.8 44.3
12:10 1014 29.94 843 24.89 18.5 65.2 50 8.1 46.5
12:15 1014 29.94 843 24.89 17.7 63.9 52 7.7 45.9
12:20 1014 29.94 843 24.89 18.1 64.6 50 7.8 46
12:25 1014 29.94 843 24.89 18.4 65.1 49 7.8 46
12:30 1014 29.94 843 24.89 18.7 65.7 48 7.5 45.5
12:35 1014 29.94 843 24.89 19.1 66.3 47 7.7 45.9
12:40 1014 29.94 843 24.89 19.4 67 47 7.8 46.1
12:45 1014 29.94 843 24.89 18.6 65.4 51 8.3 47
12:50 1014 29.94 843 24.89 18.6 65.4 50 8 46.5
12:55 1014 29.94 843 24.89 19.2 66.6 49 8.5 47.3
13:00 1014 29.94 843 24.89 19 66.1 52 8.9 48.1
13:05 1014 29.94 843 24.89 18.3 64.9 52 8.3 46.9
13:10 1014 29.94 843 24.89 18.6 65.5 52 8.7 47.6
13:15 1014 29.94 843 24.89 18.1 64.6 53 8.5 47.3
13:20 1014 29.94 843 24.89 18.2 64.7 53 8.5 47.3
13:25 1014 29.94 843 24.89 17.8 64.1 53 8.1 46.6
13:30 1014 29.94 843 24.89 17.8 64.1 53 8.1 46.6
13:35 1013 29.91 843 24.89 17.9 64.1 55 8.8 47.8
13:40 1013 29.91 843 24.89 17.3 63.1 55 8.3 47
13:45 1013 29.91 843 24.89 17 62.7 55 8 46.3
13:50 1013 29.91 842 24.86 17.2 62.9 58 8.9 48
13:55 1013 29.91 842 24.86 17.4 63.2 56 8.7 47.6
14:00 1013 29.91 843 24.89 17.6 63.6 56 8.9 48
14:05 1014 29.94 843 24.89 17.5 63.5 55 8.6 47.5
14:10 1014 29.94 843 24.89 17.6 63.6 56 8.8 47.9
14:15 1013 29.91 843 24.89 17.8 64 58 9.5 49.1
14:20 1014 29.94 843 24.89 18.1 64.6 56 9.2 48.6
14:25 1014 29.94 843 24.89 17.9 64.2 56 9.1 48.4
14:30 1014 29.94 843 24.89 17.5 63.5 56 8.9 47.9
14:35 1014 29.94 843 24.89 17.3 63.1 59 9.4 48.9
14:40 1014 29.94 843 24.89 17.3 63.1 56 8.6 47.5
14:45 1014 29.94 843 24.89 17 62.5 55 8.1 46.5
14:50 1014 29.94 843 24.89 16.9 62.5 53 7.3 45.1
14:55 1014 29.94 843 24.89 17.3 63.1 52 7.3 45.2
15:00 1014 29.94 843 24.89 17.3 63.2 53 7.7 45.9
15:05 1013 29.91 843 24.89 17.8 64 47 6.3 43.4
15:10 1014 29.94 843 24.89 18.8 65.9 45 6.7 44
15:15 1014 29.94 843 24.89 18.9 66 45 6.8 44.3
15:20 1014 29.94 843 24.89 18.9 66.1 40 5.2 41.4
15:25 1014 29.94 843 24.89 19.1 66.3 41 5.5 41.9
15:30 1013 29.91 843 24.89 19.1 66.4 42 6 42.8
15:35 1014 29.94 843 24.89 19.2 66.5 44 6.7 44.1
15:40 1014 29.94 843 24.89 18.7 65.6 48 7.4 45.4
15:45 1014 29.94 843 24.89 17.7 63.8 52 7.8 46
15:50 1014 29.94 843 24.89 16.9 62.4 52 7 44.6
15:55 1014 29.94 843 24.89 16.2 61.1 54 7 44.6
16:00 1015 29.97 844 24.92 15.8 60.5 53 6.3 43.4
16:05 1015 29.97 844 24.92 14.9 58.8 66 8.6 47.4
16:10 1015 29.97 844 24.92 13.6 56.5 71 8.6 47.5
16:15 1014 29.94 844 24.92 13.2 55.7 73 8.4 47.1
16:20 1014 29.94 844 24.92 13.2 55.8 76 9 48.3
16:25 1014 29.94 844 24.92 13.7 56.6 74 9.1 48.4
16:30 1014 29.94 844 24.92 14.2 57.5 67 8.2 46.8
16:35 1014 29.94 843 24.89 14.3 57.7 68 8.6 47.4
16:40 1014 29.94 843 24.89 14.5 58.1 62 7.4 45.3
16:45 1014 29.94 843 24.89 14.5 58.1 63 7.6 45.6
16:50 1014 29.94 843 24.89 15.3 59.6 55 6.4 43.5
16:55 1014 29.94 843 24.89 15.1 59.2 57 6.7 44.1
17:00 1014 29.94 843 24.89 14.3 57.7 59 6.6 43.8
17:05 1015 29.97 844 24.92 14.6 58.2 60 7.1 44.7
17:10 1015 29.97 844 24.92 14.8 58.7 58 6.7 44.1
17:15 1015 29.97 845 24.95 14.8 58.6 61 7.3 45.1
17:20 1016 30 845 24.95 14.6 58.3 67 8.7 47.6
17:25 1016 30 845 24.95 14 57.3 68 8.3 46.9
17:30 1016 30 845 24.95 13.1 55.6 77 9.2 48.5
17:35 1016 30 845 24.95 13 55.3 75 8.6 47.5
17:40 1016 30 845 24.95 13 55.4 74 8.6 47.5
17:45 1016 30 845 24.95 13.3 55.9 68 7.5 45.5
17:50 1015 29.97 845 24.95 13.3 55.9 68 7.6 45.6
17:55 1015 29.97 845 24.95 13.5 56.2 69 8 46.5
18:00 1015 29.97 844 24.92 13.5 56.2 70 8.2 46.8
18:05 1015 29.97 844 24.92 13.3 56 75 9 48.2
18:10 1015 29.97 844 24.92 13.5 56.2 74 9 48.2
18:15 1015 29.97 844 24.92 13.3 55.9 73 8.6 47.5
18:20 1015 29.97 844 24.92 13.4 56.2 71 8.4 47.1
18:25 1015 29.97 844 24.92 13.7 56.7 71 8.7 47.7
18:30 1015 29.97 844 24.92 14 57.1 68 8.3 46.9
18:35 1015 29.97 844 24.92 13.8 56.9 68 8.1 46.6
18:40 1015 29.97 844 24.92 13.7 56.7 66 7.5 45.6
18:45 1014 29.94 843 24.89 13.5 56.3 71 8.4 47.2
18:50 1014 29.94 843 24.89 13.5 56.3 69 8.1 46.5
18:55 1014 29.94 844 24.92 13.4 56.1 69 7.8 46.1
19:00 1014 29.94 844 24.92 13.7 56.7 67 7.8 46
19:05 1014 29.94 843 24.89 14.4 57.9 65 8.1 46.5
19:10 1014 29.94 843 24.89 14.2 57.6 67 8.2 46.8
19:15 1013 29.91 843 24.89 14.2 57.5 67 8.2 46.8
19:20 1013 29.91 843 24.89 14 57.2 65 7.6 45.8
19:25 1014 29.94 843 24.89 14.2 57.5 66 8 46.4
19:30 1013 29.91 843 24.89 14.1 57.3 70 8.6 47.5
19:35 1014 29.94 843 24.89 13.9 57.1 70 8.6 47.4
19:40 1013 29.91 843 24.89 14 57.1 66 7.8 46
19:45 1013 29.91 843 24.89 14 57.3 66 7.9 46.2
19:50 1013 29.91 843 24.89 14 57.2 64 7.4 45.4
19:55 1013 29.91 842 24.86 13.9 57 65 7.4 45.3
20:00 1013 29.91 842 24.86 13.7 56.7 66 7.5 45.5
20:05 1013 29.91 843 24.89 13.7 56.6 67 7.7 45.9
20:10 1013 29.91 843 24.89 13.6 56.4 69 8 46.4
20:15 1014 29.94 843 24.89 13.4 56.2 70 8.2 46.7
20:20 1014 29.94 843 24.89 13.2 55.8 71 8.2 46.8
20:25 1014 29.94 843 24.89 13.1 55.6 71 8.1 46.5
20:30 1014 29.94 843 24.89 13.1 55.6 72 8.2 46.8
20:35 1014 29.94 843 24.89 13 55.5 73 8.3 47
20:40 1014 29.94 843 24.89 12.9 55.2 74 8.5 47.3
20:45 1014 29.94 843 24.89 12.7 54.9 78 9.1 48.3
20:50 1014 29.94 843 24.89 12.5 54.4 80 9.1 48.3
20:55 1014 29.94 844 24.92 12.3 54.2 80 9 48.2
21:00 1015 29.97 844 24.92 12.5 54.4 79 8.9 48
21:05 1015 29.97 844 24.92 12.5 54.4 81 9.3 48.8
21:10 1015 29.97 844 24.92 12.2 53.9 82 9.2 48.6
21:15 1015 29.97 844 24.92 12 53.5 81 8.9 48
21:20 1015 29.97 844 24.92 11.9 53.5 81 8.7 47.7
21:25 1015 29.97 845 24.95 11.9 53.5 80 8.5 47.4
21:30 1015 29.97 845 24.95 12 53.5 81 8.7 47.7
21:35 1015 29.97 844 24.92 11.4 52.5 84 8.8 47.9
21:40 1015 29.97 844 24.92 11.1 52 85 8.7 47.7
21:45 1015 29.97 844 24.92 11 51.8 87 9 48.2
21:50 1015 29.97 844 24.92 10.8 51.5 88 9 48.1
21:55 1015 29.97 844 24.92 10.8 51.4 88 8.9 48.1
22:00 1015 29.97 844 24.92 10.8 51.4 88 8.9 48
22:05 1015 29.97 844 24.92 11 51.7 87 8.8 47.9
22:10 1015 29.97 844 24.92 11.2 52.1 85 8.8 47.9
22:15 1015 29.97 844 24.92 11.2 52.2 86 8.9 48
22:20 1015 29.97 844 24.92 11.2 52.1 83 8.4 47.2
22:25 1015 29.97 845 24.95 11.2 52.2 83 8.4 47.2
22:30 1016 30 845 24.95 11.3 52.3 85 8.9 48
22:35 1016 30 845 24.95 11.2 52.2 85 8.8 47.8
22:40 1016 30 845 24.95 11.1 51.9 86 8.8 47.8
22:45 1016 30 845 24.95 11 51.9 87 9 48.1
22:50 1016 30 845 24.95 11.1 52 87 9 48.2
22:55 1016 30 845 24.95 10.9 51.5 89 9.1 48.3
23:00 1016 30 846 24.98 10.7 51.2 90 9.2 48.5
23:05 1016 30 846 24.98 10.6 51.1 90 9.1 48.3
23:10 1016 30 845 24.95 10.6 51.1 90 9.1 48.3
23:15 1016 30 845 24.95 10.6 51.1 91 9.2 48.5
23:20 1016 30 845 24.95 10.3 50.6 92 9.1 48.3
23:25 1016 30 845 24.95 10.1 50.1 93 9 48.2
23:30 1016 30 845 24.95 9.9 49.8 94 8.9 48.1
23:35 1016 30 845 24.95 9.8 49.7 94 8.9 48.1
23:40 1016 30 845 24.95 9.7 49.5 94 8.9 47.9
23:45 1016 30 845 24.95 9.6 49.4 94 8.7 47.6
23:50 1016 30 845 24.95 9.6 49.2 94 8.6 47.5
23:55 1016 30 845 24.95 9.6 49.3 94 8.6 47.5
24:00 1015 29.97 845 24.95 9.7 49.4 93 8.6 47.5